sensor_id;sensor_type;location;lat;lon;timestamp;pressure;altitude;pressure_sealevel;temperature;humidity
21728;BME280;11026;50.560;17.852;2023-03-11T00:00:43;96955.13;;;9.33;75.51
21728;BME280;11026;50.560;17.852;2023-03-11T00:03:14;96950.59;;;9.24;74.75
21728;BME280;11026;50.560;17.852;2023-03-11T00:05:44;96958.66;;;9.23;73.19
21728;BME280;11026;50.560;17.852;2023-03-11T00:08:15;96955.03;;;9.13;72.35
21728;BME280;11026;50.560;17.852;2023-03-11T00:10:46;96965.34;;;9.04;71.80
21728;BME280;11026;50.560;17.852;2023-03-11T00:13:15;96968.97;;;9.03;71.87
21728;BME280;11026;50.560;17.852;2023-03-11T00:15:47;96964.88;;;8.88;72.88
21728;BME280;11026;50.560;17.852;2023-03-11T00:18:15;96961.28;;;8.89;72.08
21728;BME280;11026;50.560;17.852;2023-03-11T00:20:45;96959.34;;;8.69;73.42
21728;BME280;11026;50.560;17.852;2023-03-11T00:23:14;96952.66;;;8.65;74.12
21728;BME280;11026;50.560;17.852;2023-03-11T00:25:44;96975.78;;;8.72;72.55
21728;BME280;11026;50.560;17.852;2023-03-11T00:28:12;96961.75;;;8.60;73.34
21728;BME280;11026;50.560;17.852;2023-03-11T00:30:42;96951.91;;;8.62;72.33
21728;BME280;11026;50.560;17.852;2023-03-11T00:33:13;96948.09;;;8.55;72.10
21728;BME280;11026;50.560;17.852;2023-03-11T00:35:42;96928.91;;;8.53;72.55
21728;BME280;11026;50.560;17.852;2023-03-11T00:38:13;96927.69;;;8.46;72.88
21728;BME280;11026;50.560;17.852;2023-03-11T00:40:43;96943.34;;;8.36;72.68
21728;BME280;11026;50.560;17.852;2023-03-11T00:43:11;96945.66;;;8.41;72.81
21728;BME280;11026;50.560;17.852;2023-03-11T00:45:39;96939.97;;;8.34;72.74
21728;BME280;11026;50.560;17.852;2023-03-11T00:48:13;96946.09;;;8.35;72.79
21728;BME280;11026;50.560;17.852;2023-03-11T00:50:40;96935.25;;;8.40;72.40
21728;BME280;11026;50.560;17.852;2023-03-11T00:53:10;96939.56;;;8.41;72.48
21728;BME280;11026;50.560;17.852;2023-03-11T00:55:38;96930.19;;;8.36;71.71
21728;BME280;11026;50.560;17.852;2023-03-11T00:58:08;96947.88;;;8.34;72.02
21728;BME280;11026;50.560;17.852;2023-03-11T01:00:36;96942.41;;;8.37;71.71
21728;BME280;11026;50.560;17.852;2023-03-11T01:03:03;96952.66;;;8.29;72.09
21728;BME280;11026;50.560;17.852;2023-03-11T01:05:33;96938.53;;;8.30;72.60
21728;BME280;11026;50.560;17.852;2023-03-11T01:08:02;96963.91;;;8.20;71.83
21728;BME280;11026;50.560;17.852;2023-03-11T01:10:31;96951.00;;;8.28;70.91
21728;BME280;11026;50.560;17.852;2023-03-11T01:13:00;96952.53;;;8.20;70.71
21728;BME280;11026;50.560;17.852;2023-03-11T01:15:30;96943.69;;;8.21;70.46
21728;BME280;11026;50.560;17.852;2023-03-11T01:17:58;96939.59;;;8.17;70.68
21728;BME280;11026;50.560;17.852;2023-03-11T01:20:27;96932.94;;;8.00;71.46
21728;BME280;11026;50.560;17.852;2023-03-11T01:22:55;96936.88;;;7.94;71.68
21728;BME280;11026;50.560;17.852;2023-03-11T01:25:23;96939.16;;;7.99;70.61
21728;BME280;11026;50.560;17.852;2023-03-11T01:27:51;96943.38;;;8.01;70.04
21728;BME280;11026;50.560;17.852;2023-03-11T01:30:21;96930.44;;;7.98;69.48
21728;BME280;11026;50.560;17.852;2023-03-11T01:32:50;96934.72;;;7.99;69.30
21728;BME280;11026;50.560;17.852;2023-03-11T01:35:20;96919.28;;;7.95;70.85
21728;BME280;11026;50.560;17.852;2023-03-11T01:37:48;96932.31;;;7.85;71.33
21728;BME280;11026;50.560;17.852;2023-03-11T01:40:23;96930.47;;;7.74;72.83
21728;BME280;11026;50.560;17.852;2023-03-11T01:42:51;96933.03;;;7.63;74.19
21728;BME280;11026;50.560;17.852;2023-03-11T01:47:59;96946.25;;;7.50;75.48
21728;BME280;11026;50.560;17.852;2023-03-11T01:50:32;96946.19;;;7.39;76.25
21728;BME280;11026;50.560;17.852;2023-03-11T01:53:02;96943.94;;;7.22;76.94
21728;BME280;11026;50.560;17.852;2023-03-11T01:55:31;96943.66;;;7.13;78.46
21728;BME280;11026;50.560;17.852;2023-03-11T01:58:01;96944.59;;;7.00;80.20
21728;BME280;11026;50.560;17.852;2023-03-11T02:00:31;96937.06;;;6.95;79.96
21728;BME280;11026;50.560;17.852;2023-03-11T02:02:59;96932.97;;;6.91;80.04
21728;BME280;11026;50.560;17.852;2023-03-11T02:05:28;96943.06;;;6.97;79.96
21728;BME280;11026;50.560;17.852;2023-03-11T02:08:04;96934.50;;;7.06;77.57
21728;BME280;11026;50.560;17.852;2023-03-11T02:10:32;96930.97;;;6.95;79.29
21728;BME280;11026;50.560;17.852;2023-03-11T02:13:01;96929.91;;;6.97;78.57
21728;BME280;11026;50.560;17.852;2023-03-11T02:15:30;96937.72;;;6.86;79.52
21728;BME280;11026;50.560;17.852;2023-03-11T02:18:02;96930.34;;;6.91;79.44
21728;BME280;11026;50.560;17.852;2023-03-11T02:20:48;96926.13;;;6.88;80.49
21728;BME280;11026;50.560;17.852;2023-03-11T02:23:18;96933.50;;;6.83;80.96
21728;BME280;11026;50.560;17.852;2023-03-11T02:26:01;96927.53;;;6.81;80.96
21728;BME280;11026;50.560;17.852;2023-03-11T02:28:34;96931.28;;;6.90;81.60
21728;BME280;11026;50.560;17.852;2023-03-11T02:31:11;96936.47;;;6.79;81.54
21728;BME280;11026;50.560;17.852;2023-03-11T02:33:40;96930.56;;;6.75;81.06
21728;BME280;11026;50.560;17.852;2023-03-11T02:36:30;96944.44;;;6.64;82.77
21728;BME280;11026;50.560;17.852;2023-03-11T02:38:58;96950.13;;;6.58;83.21
21728;BME280;11026;50.560;17.852;2023-03-11T02:41:26;96939.00;;;6.42;83.08
21728;BME280;11026;50.560;17.852;2023-03-11T02:43:54;96941.31;;;6.47;83.49
21728;BME280;11026;50.560;17.852;2023-03-11T02:46:22;96937.72;;;6.48;83.90
21728;BME280;11026;50.560;17.852;2023-03-11T02:48:50;96951.59;;;6.37;84.93
21728;BME280;11026;50.560;17.852;2023-03-11T02:51:19;96945.63;;;6.35;84.88
21728;BME280;11026;50.560;17.852;2023-03-11T02:53:49;96946.97;;;6.28;85.40
21728;BME280;11026;50.560;17.852;2023-03-11T02:56:18;96948.31;;;6.21;85.67
21728;BME280;11026;50.560;17.852;2023-03-11T02:58:45;96949.59;;;6.28;85.76
21728;BME280;11026;50.560;17.852;2023-03-11T03:01:13;96957.25;;;6.18;87.21
21728;BME280;11026;50.560;17.852;2023-03-11T03:03:40;96951.78;;;6.08;87.60
21728;BME280;11026;50.560;17.852;2023-03-11T03:06:08;96955.53;;;6.04;89.24
21728;BME280;11026;50.560;17.852;2023-03-11T03:08:35;96950.72;;;5.98;90.71
21728;BME280;11026;50.560;17.852;2023-03-11T03:11:04;96954.84;;;5.88;90.11
21728;BME280;11026;50.560;17.852;2023-03-11T03:13:31;96949.81;;;5.85;89.79
21728;BME280;11026;50.560;17.852;2023-03-11T03:16:05;96961.25;;;5.57;93.07
21728;BME280;11026;50.560;17.852;2023-03-11T03:18:32;96939.28;;;5.45;95.26
21728;BME280;11026;50.560;17.852;2023-03-11T03:21:01;96958.47;;;5.46;95.50
21728;BME280;11026;50.560;17.852;2023-03-11T03:23:29;96964.84;;;5.41;95.78
21728;BME280;11026;50.560;17.852;2023-03-11T03:26:01;96966.41;;;5.31;97.58
21728;BME280;11026;50.560;17.852;2023-03-11T03:28:28;96971.00;;;5.28;99.31
21728;BME280;11026;50.560;17.852;2023-03-11T03:31:02;96956.06;;;5.15;100.00
21728;BME280;11026;50.560;17.852;2023-03-11T03:33:31;96972.72;;;5.00;100.00
21728;BME280;11026;50.560;17.852;2023-03-11T03:35:58;96965.69;;;5.01;100.00
21728;BME280;11026;50.560;17.852;2023-03-11T03:38:25;96981.91;;;4.93;100.00
21728;BME280;11026;50.560;17.852;2023-03-11T03:40:53;96975.16;;;4.89;100.00
21728;BME280;11026;50.560;17.852;2023-03-11T03:43:20;96970.88;;;4.74;100.00
21728;BME280;11026;50.560;17.852;2023-03-11T03:45:59;96973.94;;;4.66;100.00
21728;BME280;11026;50.560;17.852;2023-03-11T03:48:27;96966.47;;;4.74;100.00
21728;BME280;11026;50.560;17.852;2023-03-11T03:51:03;96970.78;;;4.61;100.00
21728;BME280;11026;50.560;17.852;2023-03-11T03:53:33;96981.16;;;4.62;100.00
21728;BME280;11026;50.560;17.852;2023-03-11T03:56:04;96985.06;;;4.41;100.00
21728;BME280;11026;50.560;17.852;2023-03-11T03:58:32;96987.06;;;4.52;100.00
21728;BME280;11026;50.560;17.852;2023-03-11T04:01:03;96989.34;;;4.42;100.00
21728;BME280;11026;50.560;17.852;2023-03-11T04:03:33;96985.41;;;4.35;100.00
21728;BME280;11026;50.560;17.852;2023-03-11T04:06:09;96996.16;;;4.16;100.00
21728;BME280;11026;50.560;17.852;2023-03-11T04:08:38;97016.25;;;4.00;100.00
21728;BME280;11026;50.560;17.852;2023-03-11T04:11:06;97008.00;;;3.91;100.00
21728;BME280;11026;50.560;17.852;2023-03-11T04:13:33;97049.69;;;3.79;100.00
21728;BME280;11026;50.560;17.852;2023-03-11T04:16:06;97032.34;;;3.46;100.00
21728;BME280;11026;50.560;17.852;2023-03-11T04:18:39;97033.19;;;3.31;100.00
21728;BME280;11026;50.560;17.852;2023-03-11T04:21:07;97015.84;;;3.14;100.00
21728;BME280;11026;50.560;17.852;2023-03-11T04:23:34;97032.50;;;3.11;100.00
21728;BME280;11026;50.560;17.852;2023-03-11T04:26:04;97037.03;;;2.92;100.00
21728;BME280;11026;50.560;17.852;2023-03-11T04:28:34;97039.88;;;2.87;100.00
21728;BME280;11026;50.560;17.852;2023-03-11T04:31:01;97044.25;;;2.87;100.00
21728;BME280;11026;50.560;17.852;2023-03-11T04:33:35;97045.34;;;2.83;100.00
21728;BME280;11026;50.560;17.852;2023-03-11T04:36:06;97071.00;;;2.75;100.00
21728;BME280;11026;50.560;17.852;2023-03-11T04:38:35;97049.09;;;2.61;100.00
21728;BME280;11026;50.560;17.852;2023-03-11T04:41:03;97058.44;;;2.48;100.00
21728;BME280;11026;50.560;17.852;2023-03-11T04:43:32;97078.50;;;2.30;100.00
21728;BME280;11026;50.560;17.852;2023-03-11T04:46:00;97081.09;;;2.30;100.00
21728;BME280;11026;50.560;17.852;2023-03-11T04:48:27;97087.44;;;2.25;100.00
21728;BME280;11026;50.560;17.852;2023-03-11T04:50:56;97099.63;;;2.07;100.00
21728;BME280;11026;50.560;17.852;2023-03-11T04:53:23;97120.50;;;2.07;100.00
21728;BME280;11026;50.560;17.852;2023-03-11T04:55:51;97108.81;;;1.96;100.00
21728;BME280;11026;50.560;17.852;2023-03-11T04:58:20;97119.81;;;1.84;100.00
21728;BME280;11026;50.560;17.852;2023-03-11T05:00:48;97132.38;;;1.76;100.00
21728;BME280;11026;50.560;17.852;2023-03-11T05:03:15;97116.16;;;1.69;100.00
21728;BME280;11026;50.560;17.852;2023-03-11T05:05:43;97116.34;;;1.66;100.00
21728;BME280;11026;50.560;17.852;2023-03-11T05:08:12;97110.59;;;1.58;100.00
21728;BME280;11026;50.560;17.852;2023-03-11T05:10:40;97120.41;;;1.53;100.00
21728;BME280;11026;50.560;17.852;2023-03-11T05:13:09;97117.03;;;1.51;100.00
21728;BME280;11026;50.560;17.852;2023-03-11T05:15:37;97117.63;;;1.39;100.00
21728;BME280;11026;50.560;17.852;2023-03-11T05:18:05;97122.03;;;1.37;100.00
21728;BME280;11026;50.560;17.852;2023-03-11T05:20:33;97119.78;;;1.48;100.00
21728;BME280;11026;50.560;17.852;2023-03-11T05:23:02;97127.16;;;1.38;100.00
21728;BME280;11026;50.560;17.852;2023-03-11T05:25:29;97133.72;;;1.47;100.00
21728;BME280;11026;50.560;17.852;2023-03-11T05:28:04;97122.25;;;1.51;100.00
21728;BME280;11026;50.560;17.852;2023-03-11T05:30:32;97117.03;;;1.51;100.00
21728;BME280;11026;50.560;17.852;2023-03-11T05:32:59;97128.94;;;1.57;100.00
21728;BME280;11026;50.560;17.852;2023-03-11T05:35:27;97129.00;;;1.55;100.00
21728;BME280;11026;50.560;17.852;2023-03-11T05:37:55;97130.84;;;1.53;100.00
21728;BME280;11026;50.560;17.852;2023-03-11T05:40:23;97137.47;;;1.60;100.00
21728;BME280;11026;50.560;17.852;2023-03-11T05:42:50;97130.41;;;1.62;100.00
21728;BME280;11026;50.560;17.852;2023-03-11T05:45:18;97126.75;;;1.66;100.00
21728;BME280;11026;50.560;17.852;2023-03-11T05:47:45;97131.81;;;1.69;100.00
21728;BME280;11026;50.560;17.852;2023-03-11T05:50:12;97144.78;;;1.71;100.00
21728;BME280;11026;50.560;17.852;2023-03-11T05:52:39;97144.63;;;1.74;100.00
21728;BME280;11026;50.560;17.852;2023-03-11T05:55:16;97149.16;;;1.70;100.00
21728;BME280;11026;50.560;17.852;2023-03-11T05:57:43;97136.75;;;1.76;100.00
21728;BME280;11026;50.560;17.852;2023-03-11T06:00:17;97150.63;;;1.76;100.00
21728;BME280;11026;50.560;17.852;2023-03-11T06:02:46;97154.06;;;1.77;100.00
21728;BME280;11026;50.560;17.852;2023-03-11T06:05:14;97159.16;;;1.80;100.00
21728;BME280;11026;50.560;17.852;2023-03-11T06:07:42;97172.31;;;1.77;100.00
21728;BME280;11026;50.560;17.852;2023-03-11T06:10:10;97196.75;;;1.74;100.00
21728;BME280;11026;50.560;17.852;2023-03-11T06:12:37;97179.44;;;1.73;100.00
21728;BME280;11026;50.560;17.852;2023-03-11T06:15:08;97184.00;;;1.68;100.00
21728;BME280;11026;50.560;17.852;2023-03-11T06:17:36;97192.81;;;1.65;100.00
21728;BME280;11026;50.560;17.852;2023-03-11T06:20:04;97209.50;;;1.61;100.00
21728;BME280;11026;50.560;17.852;2023-03-11T06:22:32;97212.94;;;1.62;100.00
21728;BME280;11026;50.560;17.852;2023-03-11T06:24:59;97206.88;;;1.61;100.00
21728;BME280;11026;50.560;17.852;2023-03-11T06:27:26;97227.72;;;1.61;100.00
21728;BME280;11026;50.560;17.852;2023-03-11T06:29:54;97208.22;;;1.51;100.00
21728;BME280;11026;50.560;17.852;2023-03-11T06:32:22;97224.97;;;1.45;100.00
21728;BME280;11026;50.560;17.852;2023-03-11T06:34:51;97226.81;;;1.43;100.00
21728;BME280;11026;50.560;17.852;2023-03-11T06:37:19;97227.06;;;1.37;100.00
21728;BME280;11026;50.560;17.852;2023-03-11T06:39:51;97218.47;;;1.35;100.00
21728;BME280;11026;50.560;17.852;2023-03-11T06:42:20;97238.94;;;1.24;100.00
21728;BME280;11026;50.560;17.852;2023-03-11T06:44:49;97241.75;;;1.19;100.00
21728;BME280;11026;50.560;17.852;2023-03-11T06:47:17;97245.56;;;1.11;100.00
21728;BME280;11026;50.560;17.852;2023-03-11T06:49:45;97261.78;;;1.17;100.00
21728;BME280;11026;50.560;17.852;2023-03-11T06:52:12;97266.47;;;1.09;100.00
21728;BME280;11026;50.560;17.852;2023-03-11T06:54:40;97259.03;;;1.00;100.00
21728;BME280;11026;50.560;17.852;2023-03-11T06:57:08;97263.94;;;1.08;100.00
21728;BME280;11026;50.560;17.852;2023-03-11T06:59:37;97281.78;;;0.95;100.00
21728;BME280;11026;50.560;17.852;2023-03-11T07:02:06;97280.63;;;1.02;100.00
21728;BME280;11026;50.560;17.852;2023-03-11T07:04:34;97277.16;;;1.03;100.00
21728;BME280;11026;50.560;17.852;2023-03-11T07:07:02;97293.13;;;0.94;100.00
21728;BME280;11026;50.560;17.852;2023-03-11T07:09:31;97284.06;;;0.82;100.00
21728;BME280;11026;50.560;17.852;2023-03-11T07:12:00;97297.53;;;0.71;100.00
21728;BME280;11026;50.560;17.852;2023-03-11T07:14:27;97303.91;;;0.85;100.00
21728;BME280;11026;50.560;17.852;2023-03-11T07:16:54;97319.16;;;0.94;100.00
21728;BME280;11026;50.560;17.852;2023-03-11T07:19:22;97308.91;;;0.69;100.00
21728;BME280;11026;50.560;17.852;2023-03-11T07:21:50;97314.94;;;0.69;100.00
21728;BME280;11026;50.560;17.852;2023-03-11T07:24:18;97311.91;;;0.58;100.00
21728;BME280;11026;50.560;17.852;2023-03-11T07:26:46;97315.44;;;0.57;100.00
21728;BME280;11026;50.560;17.852;2023-03-11T07:29:14;97320.56;;;0.59;100.00
21728;BME280;11026;50.560;17.852;2023-03-11T07:31:41;97317.00;;;0.61;100.00
21728;BME280;11026;50.560;17.852;2023-03-11T07:34:10;97339.97;;;0.50;100.00
21728;BME280;11026;50.560;17.852;2023-03-11T07:36:40;97340.91;;;0.49;100.00
21728;BME280;11026;50.560;17.852;2023-03-11T07:39:12;97353.09;;;0.47;100.00
21728;BME280;11026;50.560;17.852;2023-03-11T07:41:41;97343.97;;;0.37;100.00
21728;BME280;11026;50.560;17.852;2023-03-11T07:44:11;97359.75;;;0.32;100.00
21728;BME280;11026;50.560;17.852;2023-03-11T07:46:39;97338.88;;;0.34;100.00
21728;BME280;11026;50.560;17.852;2023-03-11T07:49:07;97357.19;;;0.31;100.00
21728;BME280;11026;50.560;17.852;2023-03-11T07:51:36;97366.81;;;0.29;100.00
21728;BME280;11026;50.560;17.852;2023-03-11T07:54:04;97382.69;;;0.21;100.00
21728;BME280;11026;50.560;17.852;2023-03-11T07:56:33;97381.16;;;0.15;100.00
21728;BME280;11026;50.560;17.852;2023-03-11T07:59:03;97374.16;;;0.17;100.00
21728;BME280;11026;50.560;17.852;2023-03-11T08:01:32;97398.47;;;0.16;100.00
21728;BME280;11026;50.560;17.852;2023-03-11T08:04:05;97367.69;;;0.28;100.00
21728;BME280;11026;50.560;17.852;2023-03-11T08:06:35;97414.19;;;0.37;100.00
21728;BME280;11026;50.560;17.852;2023-03-11T08:09:07;97356.41;;;0.29;100.00
21728;BME280;11026;50.560;17.852;2023-03-11T08:11:35;97404.63;;;0.37;100.00
21728;BME280;11026;50.560;17.852;2023-03-11T08:14:03;97403.50;;;0.44;100.00
21728;BME280;11026;50.560;17.852;2023-03-11T08:16:30;97412.53;;;0.34;100.00
21728;BME280;11026;50.560;17.852;2023-03-11T08:18:59;97404.34;;;0.45;100.00
21728;BME280;11026;50.560;17.852;2023-03-11T08:21:27;97409.25;;;0.29;100.00
21728;BME280;11026;50.560;17.852;2023-03-11T08:23:59;97409.66;;;0.42;100.00
21728;BME280;11026;50.560;17.852;2023-03-11T08:26:34;97442.78;;;0.37;100.00
21728;BME280;11026;50.560;17.852;2023-03-11T08:29:02;97437.50;;;0.40;100.00
21728;BME280;11026;50.560;17.852;2023-03-11T08:31:31;97432.28;;;0.40;100.00
21728;BME280;11026;50.560;17.852;2023-03-11T08:34:02;97432.72;;;0.51;100.00
21728;BME280;11026;50.560;17.852;2023-03-11T08:36:31;97448.72;;;0.40;100.00
21728;BME280;11026;50.560;17.852;2023-03-11T08:38:58;97457.59;;;0.35;100.00
21728;BME280;11026;50.560;17.852;2023-03-11T08:41:27;97453.47;;;0.53;100.00
21728;BME280;11026;50.560;17.852;2023-03-11T08:43:56;97453.31;;;0.57;100.00
21728;BME280;11026;50.560;17.852;2023-03-11T08:46:30;97455.91;;;0.57;100.00
21728;BME280;11026;50.560;17.852;2023-03-11T08:49:00;97488.31;;;0.48;100.00
21728;BME280;11026;50.560;17.852;2023-03-11T08:51:29;97484.69;;;0.53;100.00
21728;BME280;11026;50.560;17.852;2023-03-11T08:53:58;97476.81;;;0.54;100.00
21728;BME280;11026;50.560;17.852;2023-03-11T08:56:26;97475.13;;;0.53;100.00
21728;BME280;11026;50.560;17.852;2023-03-11T08:58:53;97489.91;;;0.53;100.00
21728;BME280;11026;50.560;17.852;2023-03-11T09:01:21;97495.00;;;0.56;100.00
21728;BME280;11026;50.560;17.852;2023-03-11T09:03:49;97518.53;;;0.53;100.00
21728;BME280;11026;50.560;17.852;2023-03-11T09:06:19;97540.94;;;0.55;100.00
21728;BME280;11026;50.560;17.852;2023-03-11T09:08:47;97531.56;;;0.51;100.00
21728;BME280;11026;50.560;17.852;2023-03-11T09:11:15;97556.56;;;0.55;100.00
21728;BME280;11026;50.560;17.852;2023-03-11T09:13:43;97547.75;;;0.59;100.00
21728;BME280;11026;50.560;17.852;2023-03-11T09:16:15;97562.41;;;0.62;100.00
21728;BME280;11026;50.560;17.852;2023-03-11T09:18:42;97559.88;;;0.60;100.00
21728;BME280;11026;50.560;17.852;2023-03-11T09:21:10;97549.47;;;0.60;100.00
21728;BME280;11026;50.560;17.852;2023-03-11T09:23:38;97570.28;;;0.60;100.00
21728;BME280;11026;50.560;17.852;2023-03-11T09:26:08;97552.53;;;0.71;100.00
21728;BME280;11026;50.560;17.852;2023-03-11T09:28:36;97571.97;;;0.61;100.00
21728;BME280;11026;50.560;17.852;2023-03-11T09:31:03;97581.44;;;0.64;100.00
21728;BME280;11026;50.560;17.852;2023-03-11T09:33:31;97585.88;;;0.60;100.00
21728;BME280;11026;50.560;17.852;2023-03-11T09:36:01;97633.50;;;0.62;100.00
21728;BME280;11026;50.560;17.852;2023-03-11T09:38:29;97591.97;;;0.59;100.00
21728;BME280;11026;50.560;17.852;2023-03-11T09:41:08;97605.63;;;0.66;100.00
21728;BME280;11026;50.560;17.852;2023-03-11T09:45:03;97633.50;;;0.62;100.00
21728;BME280;11026;50.560;17.852;2023-03-11T09:50:00;97651.69;;;0.64;100.00
21728;BME280;11026;50.560;17.852;2023-03-11T09:57:53;97679.66;;;0.57;100.00
21728;BME280;11026;50.560;17.852;2023-03-11T10:00:23;97670.03;;;0.59;100.00
21728;BME280;11026;50.560;17.852;2023-03-11T10:02:52;97655.22;;;0.61;100.00
21728;BME280;11026;50.560;17.852;2023-03-11T10:05:25;97687.47;;;0.57;100.00
21728;BME280;11026;50.560;17.852;2023-03-11T10:08:10;97707.25;;;0.61;100.00
21728;BME280;11026;50.560;17.852;2023-03-11T10:10:58;97699.56;;;0.58;100.00
21728;BME280;11026;50.560;17.852;2023-03-11T10:13:50;97695.16;;;0.60;100.00
21728;BME280;11026;50.560;17.852;2023-03-11T10:16:39;97726.38;;;0.60;100.00
21728;BME280;11026;50.560;17.852;2023-03-11T10:27:49;97749.56;;;0.68;100.00
21728;BME280;11026;50.560;17.852;2023-03-11T10:30:28;97766.09;;;0.65;100.00
21728;BME280;11026;50.560;17.852;2023-03-11T10:33:02;97773.97;;;0.64;100.00
21728;BME280;11026;50.560;17.852;2023-03-11T10:35:37;97789.44;;;0.68;100.00
21728;BME280;11026;50.560;17.852;2023-03-11T10:38:21;97819.47;;;0.79;100.00
21728;BME280;11026;50.560;17.852;2023-03-11T10:40:53;97797.53;;;0.86;100.00
21728;BME280;11026;50.560;17.852;2023-03-11T10:43:28;97812.97;;;0.92;100.00
21728;BME280;11026;50.560;17.852;2023-03-11T10:45:58;97805.16;;;0.92;100.00
21728;BME280;11026;50.560;17.852;2023-03-11T10:48:26;97818.97;;;0.94;100.00
21728;BME280;11026;50.560;17.852;2023-03-11T10:53:24;97849.94;;;1.03;100.00
21728;BME280;11026;50.560;17.852;2023-03-11T10:55:54;97849.13;;;1.01;100.00
21728;BME280;11026;50.560;17.852;2023-03-11T10:58:25;97860.34;;;1.03;100.00
21728;BME280;11026;50.560;17.852;2023-03-11T11:01:01;97851.53;;;1.07;100.00
21728;BME280;11026;50.560;17.852;2023-03-11T11:03:29;97879.28;;;1.07;100.00
21728;BME280;11026;50.560;17.852;2023-03-11T11:06:05;97847.25;;;1.05;100.00
21728;BME280;11026;50.560;17.852;2023-03-11T11:08:33;97895.66;;;1.12;100.00
21728;BME280;11026;50.560;17.852;2023-03-11T11:11:02;97886.16;;;1.09;100.00
21728;BME280;11026;50.560;17.852;2023-03-11T11:13:33;97879.19;;;1.11;100.00
21728;BME280;11026;50.560;17.852;2023-03-11T11:16:19;97900.84;;;1.12;100.00
21728;BME280;11026;50.560;17.852;2023-03-11T11:18:56;97921.09;;;1.02;100.00
21728;BME280;11026;50.560;17.852;2023-03-11T11:21:50;97917.66;;;1.02;100.00
21728;BME280;11026;50.560;17.852;2023-03-11T11:24:26;97922.47;;;0.87;100.00
21728;BME280;11026;50.560;17.852;2023-03-11T11:30:12;97935.56;;;0.84;100.00
21728;BME280;11026;50.560;17.852;2023-03-11T11:32:41;97949.34;;;0.88;100.00
21728;BME280;11026;50.560;17.852;2023-03-11T11:35:15;97968.28;;;0.93;100.00
21728;BME280;11026;50.560;17.852;2023-03-11T11:37:50;97952.72;;;0.90;100.00
21728;BME280;11026;50.560;17.852;2023-03-11T11:40:25;97953.19;;;1.04;100.00
21728;BME280;11026;50.560;17.852;2023-03-11T11:45:28;97972.81;;;1.14;100.00
21728;BME280;11026;50.560;17.852;2023-03-11T11:48:02;97986.06;;;1.07;100.00
21728;BME280;11026;50.560;17.852;2023-03-11T11:50:37;98005.13;;;1.09;100.00
21728;BME280;11026;50.560;17.852;2023-03-11T11:55:57;97994.09;;;1.29;100.00
21728;BME280;11026;50.560;17.852;2023-03-11T11:58:24;98001.41;;;1.44;100.00
21728;BME280;11026;50.560;17.852;2023-03-11T12:04:05;98013.97;;;1.31;100.00
21728;BME280;11026;50.560;17.852;2023-03-11T12:07:35;98042.97;;;1.20;100.00
21728;BME280;11026;50.560;17.852;2023-03-11T12:10:20;98033.81;;;1.07;100.00
21728;BME280;11026;50.560;17.852;2023-03-11T12:19:03;98038.72;;;0.57;100.00
21728;BME280;11026;50.560;17.852;2023-03-11T12:21:57;98051.78;;;0.54;100.00
21728;BME280;11026;50.560;17.852;2023-03-11T12:25:35;98068.56;;;0.44;100.00
21728;BME280;11026;50.560;17.852;2023-03-11T12:28:13;98056.19;;;0.52;100.00
21728;BME280;11026;50.560;17.852;2023-03-11T12:30:55;98067.00;;;0.69;100.00
21728;BME280;11026;50.560;17.852;2023-03-11T12:33:55;98066.38;;;0.91;100.00
21728;BME280;11026;50.560;17.852;2023-03-11T12:36:34;98075.66;;;1.01;100.00
21728;BME280;11026;50.560;17.852;2023-03-11T12:39:04;98076.91;;;0.88;100.00
21728;BME280;11026;50.560;17.852;2023-03-11T12:41:37;98080.84;;;1.01;100.00
21728;BME280;11026;50.560;17.852;2023-03-11T12:44:29;98085.38;;;0.94;100.00
21728;BME280;11026;50.560;17.852;2023-03-11T12:47:03;98106.25;;;0.93;100.00
21728;BME280;11026;50.560;17.852;2023-03-11T12:49:50;98121.03;;;0.91;100.00
21728;BME280;11026;50.560;17.852;2023-03-11T12:52:28;98131.31;;;0.97;100.00
21728;BME280;11026;50.560;17.852;2023-03-11T13:03:41;98135.56;;;1.31;100.00
21728;BME280;11026;50.560;17.852;2023-03-11T13:06:36;98125.59;;;1.45;100.00
21728;BME280;11026;50.560;17.852;2023-03-11T13:09:16;98142.59;;;1.57;100.00
21728;BME280;11026;50.560;17.852;2023-03-11T13:11:46;98144.97;;;1.64;100.00
21728;BME280;11026;50.560;17.852;2023-03-11T13:16:47;98138.69;;;1.71;100.00
21728;BME280;11026;50.560;17.852;2023-03-11T13:21:59;98160.94;;;1.83;100.00
21728;BME280;11026;50.560;17.852;2023-03-11T13:30:11;98160.91;;;1.55;100.00
21728;BME280;11026;50.560;17.852;2023-03-11T13:35:43;98171.81;;;1.68;100.00
21728;BME280;11026;50.560;17.852;2023-03-11T13:41:21;98183.03;;;2.00;100.00
21728;BME280;11026;50.560;17.852;2023-03-11T13:43:54;98192.31;;;2.08;98.44
21728;BME280;11026;50.560;17.852;2023-03-11T13:46:30;98196.63;;;2.09;97.60
21728;BME280;11026;50.560;17.852;2023-03-11T13:49:13;98190.59;;;2.07;94.46
21728;BME280;11026;50.560;17.852;2023-03-11T13:51:49;98187.09;;;2.08;92.34
21728;BME280;11026;50.560;17.852;2023-03-11T13:56:59;98198.53;;;2.04;90.94
21728;BME280;11026;50.560;17.852;2023-03-11T13:59:32;98220.22;;;2.06;92.58
21728;BME280;11026;50.560;17.852;2023-03-11T14:04:47;98240.25;;;2.04;92.41
21728;BME280;11026;50.560;17.852;2023-03-11T14:09:48;98249.22;;;1.95;92.66
21728;BME280;11026;50.560;17.852;2023-03-11T14:12:17;98260.94;;;1.81;93.03
21728;BME280;11026;50.560;17.852;2023-03-11T14:14:50;98287.63;;;1.59;94.49
21728;BME280;11026;50.560;17.852;2023-03-11T14:17:21;98318.34;;;1.14;92.49
21728;BME280;11026;50.560;17.852;2023-03-11T14:22:38;98306.97;;;0.82;97.74
21728;BME280;11026;50.560;17.852;2023-03-11T14:25:08;98301.59;;;0.90;99.43
21728;BME280;11026;50.560;17.852;2023-03-11T14:27:45;98325.38;;;1.44;99.83
21728;BME280;11026;50.560;17.852;2023-03-11T14:30:24;98303.28;;;1.90;97.22